VABP/BHO METAR and TAF weather

Enter ICAO airport designator
Station Type Date Time Source
VABP METAR 2019/07/17 18:00 UTC NOAA

VABP 171800Z 27008KT 6000 NSC 29/20 Q1006 NOSIG


Station Type Date Time Source
VABP Decoded METAR 2019/07/17 18:00 UTC NOAA

Bhopal / Bairagarh, India (VABP) 23-17N 077-21E 523M
Jul 17, 2019 - 02:00 PM EDT / 2019.07.17 1800 UTC
Wind: from the W (270 degrees) at 9 MPH (8 KT):0
Visibility: 3 mile(s):0
Temperature: 84 F (29 C)
Dew Point: 68 F (20 C)
Relative Humidity: 58%
Pressure (altimeter): 29.71 in. Hg (1006 hPa)
ob: VABP 171800Z 27008KT 6000 NSC 29/20 Q1006 NOSIG
cycle: 18

Station Type Date Time Source
VABP TAF 2019/04/18 06:00 UTC NOAA

TAF VABP 180500Z 1806/1815 32008KT 6000 FEW030

Example: see airport list